createdAt,value
2023-12-28T00:00:32.284Z,14.95
2023-12-28T00:02:59.175Z,17.15
2023-12-28T00:05:26.105Z,15.82
2023-12-28T00:07:52.886Z,13.45
2023-12-28T00:10:19.710Z,13.02
2023-12-28T00:12:50.023Z,12.00
2023-12-28T00:15:16.989Z,10.77
2023-12-28T00:17:44.073Z,11.20
2023-12-28T00:20:11.445Z,11.70
2023-12-28T00:22:40.990Z,9.32
2023-12-28T00:25:08.259Z,14.38
2023-12-28T00:27:35.126Z,13.05
2023-12-28T00:30:02.556Z,12.25
2023-12-28T00:32:29.502Z,11.98
2023-12-28T00:34:56.366Z,10.70
2023-12-28T00:37:23.231Z,9.65
2023-12-28T00:39:55.881Z,8.07
2023-12-28T00:42:23.800Z,9.43
2023-12-28T00:44:50.733Z,10.50
2023-12-28T00:47:18.933Z,11.63
2023-12-28T00:49:45.832Z,11.00
2023-12-28T00:52:12.715Z,8.77
2023-12-28T00:54:39.679Z,8.75
2023-12-28T00:57:06.577Z,8.52
2023-12-28T00:59:33.404Z,11.02
2023-12-28T01:02:02.738Z,8.73
2023-12-28T01:04:29.743Z,9.70
2023-12-28T01:06:59.682Z,9.00
2023-12-28T01:09:29.720Z,9.15
2023-12-28T01:11:56.826Z,9.38
2023-12-28T01:14:26.085Z,7.65
2023-12-28T01:16:52.948Z,8.80
2023-12-28T01:19:20.474Z,7.35
2023-12-28T01:21:48.612Z,9.20
2023-12-28T01:24:15.588Z,7.47
2023-12-28T01:26:47.009Z,10.15
2023-12-28T01:29:13.789Z,8.27
2023-12-28T01:31:41.978Z,8.38
2023-12-28T01:34:08.952Z,12.10
2023-12-28T01:36:38.532Z,10.23
2023-12-28T01:39:05.284Z,8.25
2023-12-28T01:41:34.910Z,13.20
2023-12-28T01:44:01.873Z,11.52
2023-12-28T01:46:28.969Z,10.88
2023-12-28T01:48:57.606Z,13.20
2023-12-28T01:51:24.914Z,12.35
2023-12-28T01:53:53.484Z,11.68
2023-12-28T01:56:21.495Z,10.23
2023-12-28T01:58:51.242Z,10.70
2023-12-28T02:03:46.850Z,11.65
2023-12-28T02:06:15.257Z,9.48
2023-12-28T02:08:45.155Z,10.93
2023-12-28T02:11:14.913Z,10.48
2023-12-28T02:13:44.694Z,11.90
2023-12-28T02:16:22.126Z,12.20
2023-12-28T02:18:57.970Z,13.45
2023-12-28T02:21:28.067Z,17.15
2023-12-28T02:23:58.064Z,14.65
2023-12-28T02:26:24.870Z,16.88
2023-12-28T02:28:51.676Z,15.73
2023-12-28T02:31:52.041Z,14.43
2023-12-28T02:34:28.624Z,19.48
2023-12-28T02:37:01.532Z,17.90
2023-12-28T02:39:30.824Z,19.55
2023-12-28T02:41:57.874Z,20.05
2023-12-28T02:44:24.799Z,18.40
2023-12-28T02:46:51.540Z,17.73
2023-12-28T02:49:18.436Z,23.65
2023-12-28T02:51:45.321Z,22.35
2023-12-28T02:54:12.171Z,25.23
2023-12-28T02:56:41.701Z,22.98
2023-12-28T02:59:08.545Z,26.60
2023-12-28T03:01:39.335Z,24.33
2023-12-28T03:04:06.218Z,23.10
2023-12-28T03:06:32.992Z,22.63
2023-12-28T03:08:59.752Z,25.45
2023-12-28T03:11:26.669Z,23.58
2023-12-28T03:13:53.437Z,24.38
2023-12-28T03:16:20.221Z,27.65
2023-12-28T03:18:48.747Z,27.75
2023-12-28T03:21:15.627Z,27.75
2023-12-28T03:23:45.136Z,23.02
2023-12-28T03:26:12.839Z,31.20
2023-12-28T03:28:41.156Z,28.33
2023-12-28T03:31:10.525Z,23.40
2023-12-28T03:33:39.817Z,24.00
2023-12-28T03:36:08.338Z,19.33
2023-12-28T03:38:39.334Z,23.23
2023-12-28T03:41:06.102Z,23.30
2023-12-28T03:43:32.874Z,29.42
2023-12-28T03:45:59.632Z,22.30
2023-12-28T03:48:28.193Z,21.52
2023-12-28T03:50:55.193Z,23.23
2023-12-28T03:53:25.729Z,20.17
2023-12-28T03:55:52.475Z,20.20
2023-12-28T03:58:19.597Z,22.52
2023-12-28T04:00:48.211Z,20.33
2023-12-28T04:03:15.116Z,19.73
2023-12-28T04:05:43.287Z,21.38
2023-12-28T04:08:10.070Z,19.65
2023-12-28T04:10:41.671Z,24.00
2023-12-28T04:13:08.390Z,24.45
2023-12-28T04:15:35.282Z,19.88
2023-12-28T04:18:02.354Z,24.33
2023-12-28T04:20:29.493Z,17.80
2023-12-28T04:23:00.067Z,21.80
2023-12-28T04:25:26.843Z,22.38
2023-12-28T04:27:53.655Z,24.80
2023-12-28T04:30:20.543Z,21.45
2023-12-28T04:32:47.408Z,24.38
2023-12-28T04:35:17.022Z,29.27
2023-12-28T04:37:43.797Z,23.58
2023-12-28T04:40:10.872Z,23.55
2023-12-28T04:42:51.452Z,25.63
2023-12-28T04:45:20.124Z,19.52
2023-12-28T04:47:47.009Z,23.73
2023-12-28T04:50:19.779Z,22.52
2023-12-28T04:52:46.518Z,21.33
2023-12-28T04:55:13.599Z,24.33
2023-12-28T04:57:43.730Z,26.42
2023-12-28T05:00:10.825Z,25.83
2023-12-28T05:02:39.906Z,27.05
2023-12-28T05:05:08.150Z,23.25
2023-12-28T05:07:34.916Z,29.95
2023-12-28T05:10:01.661Z,24.10
2023-12-28T05:12:42.729Z,27.70
2023-12-28T05:15:11.000Z,24.65
2023-12-28T05:17:43.348Z,28.25
2023-12-28T05:20:10.734Z,19.42
2023-12-28T05:22:37.539Z,25.05
2023-12-28T05:25:04.717Z,19.05
2023-12-28T05:27:31.527Z,13.30
2023-12-28T05:30:01.928Z,17.75
2023-12-28T05:32:28.948Z,14.20
2023-12-28T05:34:55.813Z,11.38
2023-12-28T05:37:22.623Z,10.05
2023-12-28T05:39:49.467Z,9.73
2023-12-28T05:42:20.590Z,13.98
2023-12-28T05:44:47.496Z,9.00
2023-12-28T05:47:14.295Z,10.15
2023-12-28T05:49:41.214Z,8.13
2023-12-28T05:52:08.116Z,9.48
2023-12-28T05:54:34.911Z,10.25
2023-12-28T05:57:01.685Z,11.00
2023-12-28T05:59:28.407Z,15.23
2023-12-28T06:01:55.781Z,12.82
2023-12-28T06:04:25.163Z,13.25
2023-12-28T06:06:54.990Z,13.93
2023-12-28T06:09:21.853Z,13.40
2023-12-28T06:11:48.690Z,15.00
2023-12-28T06:14:17.733Z,19.40
2023-12-28T06:16:44.491Z,14.15
2023-12-28T06:19:13.803Z,15.85
2023-12-28T06:21:40.736Z,16.67
2023-12-28T06:24:07.606Z,16.00
2023-12-28T06:26:34.394Z,17.00
2023-12-28T06:29:01.200Z,14.98
2023-12-28T06:31:28.121Z,19.88
2023-12-28T06:33:55.006Z,14.90
2023-12-28T06:36:24.943Z,13.02
2023-12-28T06:38:52.388Z,15.00
2023-12-28T06:41:19.109Z,12.07
2023-12-28T06:43:45.860Z,13.32
2023-12-28T06:46:12.717Z,12.00
2023-12-28T06:48:42.518Z,12.10
2023-12-28T06:51:10.165Z,13.82
2023-12-28T06:53:36.927Z,10.55
2023-12-28T06:56:04.604Z,13.32
2023-12-28T06:58:31.342Z,11.93
2023-12-28T07:01:01.520Z,20.60
2023-12-28T07:03:31.407Z,14.40
2023-12-28T07:05:58.575Z,11.05
2023-12-28T07:08:32.492Z,12.52
2023-12-28T07:11:00.922Z,9.30
2023-12-28T07:13:27.804Z,9.63
2023-12-28T07:15:57.780Z,14.05
2023-12-28T07:18:30.053Z,12.13
2023-12-28T07:20:59.498Z,14.05
2023-12-28T07:23:26.295Z,11.00
2023-12-28T07:25:56.060Z,13.80
2023-12-28T07:28:22.834Z,9.68
2023-12-28T07:30:49.740Z,8.23
2023-12-28T07:33:16.786Z,13.25
2023-12-28T07:35:43.727Z,10.52
2023-12-28T07:38:10.494Z,10.68
2023-12-28T07:40:37.271Z,9.35
2023-12-28T07:43:06.833Z,7.90
2023-12-28T07:45:34.013Z,13.32
2023-12-28T07:48:01.521Z,9.10
2023-12-28T07:50:28.502Z,11.52
2023-12-28T07:52:55.256Z,11.38
2023-12-28T07:55:22.085Z,14.23
2023-12-28T07:57:52.114Z,14.88
2023-12-28T08:00:19.753Z,19.50
2023-12-28T08:02:49.598Z,16.58
2023-12-28T08:05:16.485Z,14.40
2023-12-28T08:07:43.279Z,16.17
2023-12-28T08:10:13.541Z,18.27
2023-12-28T08:12:40.414Z,27.33
2023-12-28T08:15:09.820Z,22.88
2023-12-28T08:17:39.925Z,24.52
2023-12-28T08:20:07.660Z,25.70
2023-12-28T08:22:34.388Z,25.13
2023-12-28T08:25:01.179Z,28.25
2023-12-28T08:27:28.294Z,28.20
2023-12-28T08:29:55.117Z,29.52
2023-12-28T08:32:21.953Z,28.25
2023-12-28T08:34:48.798Z,28.02
2023-12-28T08:37:15.701Z,32.63
2023-12-28T08:39:42.520Z,32.03
2023-12-28T08:42:11.945Z,31.08
2023-12-28T08:44:38.669Z,30.02
2023-12-28T08:47:05.504Z,28.95
2023-12-28T08:49:32.289Z,34.33
2023-12-28T08:52:02.248Z,33.03
2023-12-28T08:54:29.108Z,30.08
2023-12-28T08:56:59.814Z,29.25
2023-12-28T08:59:32.365Z,27.60
2023-12-28T09:01:59.166Z,29.85
2023-12-28T09:04:26.058Z,38.63
2023-12-28T09:06:53.167Z,30.83
2023-12-28T09:09:24.108Z,35.60
2023-12-28T09:11:52.541Z,39.13
2023-12-28T09:14:19.343Z,42.85
2023-12-28T09:16:48.784Z,41.22
2023-12-28T09:19:16.946Z,46.10
2023-12-28T09:21:43.792Z,46.95
2023-12-28T09:24:10.526Z,39.63
2023-12-28T09:26:37.379Z,45.58
2023-12-28T09:29:04.617Z,40.63
2023-12-28T09:31:32.011Z,42.25
2023-12-28T09:34:01.292Z,43.42
2023-12-28T09:36:28.171Z,47.75
2023-12-28T09:39:00.523Z,41.40
2023-12-28T09:41:35.522Z,39.47
2023-12-28T09:44:13.515Z,41.75
2023-12-28T09:46:43.844Z,36.72
2023-12-28T09:49:15.775Z,35.45
2023-12-28T09:51:46.068Z,40.33
2023-12-28T09:54:12.835Z,42.20
2023-12-28T09:56:41.334Z,42.60
2023-12-28T09:59:08.759Z,43.65
2023-12-28T10:01:38.844Z,39.33
2023-12-28T10:04:05.893Z,41.20
2023-12-28T10:06:32.875Z,37.88
2023-12-28T10:09:00.525Z,36.22
2023-12-28T10:11:30.050Z,35.90
2023-12-28T10:13:59.927Z,42.90
2023-12-28T10:16:31.698Z,45.85
2023-12-28T10:18:58.559Z,39.92
2023-12-28T10:21:39.348Z,40.92
2023-12-28T10:24:08.655Z,41.50
2023-12-28T10:26:35.537Z,39.30
2023-12-28T10:29:02.284Z,35.00
2023-12-28T10:31:29.181Z,40.92
2023-12-28T10:34:02.444Z,39.88
2023-12-28T10:36:38.116Z,33.53
2023-12-28T10:39:06.981Z,36.47
2023-12-28T10:41:35.655Z,37.08
2023-12-28T10:44:10.265Z,34.83
2023-12-28T10:46:49.740Z,37.85
2023-12-28T10:49:27.160Z,37.17
2023-12-28T10:51:55.568Z,37.22
2023-12-28T10:54:40.307Z,42.13
2023-12-28T11:00:12.208Z,35.05
2023-12-28T11:02:52.341Z,32.97
2023-12-28T11:05:24.965Z,36.13
2023-12-28T11:07:55.315Z,34.83
2023-12-28T11:10:25.374Z,35.13
2023-12-28T11:13:00.440Z,38.28
2023-12-28T11:15:32.119Z,33.65
2023-12-28T11:17:59.055Z,36.97
2023-12-28T11:20:29.741Z,36.42
2023-12-28T11:22:58.676Z,37.08
2023-12-28T11:25:38.062Z,33.50
2023-12-28T11:28:14.441Z,34.72
2023-12-28T11:30:48.926Z,36.92
2023-12-28T11:33:22.203Z,35.17
2023-12-28T11:35:56.407Z,36.85
2023-12-28T11:38:25.863Z,37.00
2023-12-28T11:40:52.609Z,56.95
2023-12-28T11:43:25.710Z,38.35
2023-12-28T11:45:56.980Z,67.65
2023-12-28T11:48:30.060Z,39.25
2023-12-28T11:50:59.824Z,39.17
2023-12-28T11:53:27.706Z,41.80
2023-12-28T11:56:01.645Z,39.53
2023-12-28T11:58:28.482Z,36.55
2023-12-28T12:00:57.221Z,40.53
2023-12-28T12:03:29.891Z,37.85
2023-12-28T12:05:57.607Z,35.75
2023-12-28T12:08:33.422Z,36.95
2023-12-28T12:11:07.617Z,34.53
2023-12-28T12:16:01.616Z,37.42
2023-12-28T12:18:28.495Z,33.35
2023-12-28T12:20:58.086Z,33.22
2023-12-28T12:23:29.984Z,32.13
2023-12-28T12:25:56.920Z,32.20
2023-12-28T12:28:26.998Z,33.83
2023-12-28T12:30:57.287Z,37.53
2023-12-28T12:33:28.680Z,37.15
2023-12-28T12:35:55.925Z,39.72
2023-12-28T12:38:23.846Z,35.08
2023-12-28T12:40:52.803Z,32.60
2023-12-28T12:43:20.590Z,32.10
2023-12-28T12:45:49.374Z,38.97
2023-12-28T12:48:16.922Z,34.13
2023-12-28T12:50:46.621Z,36.83
2023-12-28T12:53:13.376Z,36.83
2023-12-28T12:55:43.577Z,37.08
2023-12-28T12:58:13.694Z,43.60
2023-12-28T13:00:43.939Z,38.83
2023-12-28T13:03:13.881Z,37.80
2023-12-28T13:05:45.282Z,34.80
2023-12-28T13:08:12.170Z,31.15
2023-12-28T13:10:39.171Z,36.53
2023-12-28T13:13:13.183Z,37.00
2023-12-28T13:15:42.486Z,33.85
2023-12-28T13:18:09.482Z,35.95
2023-12-28T13:20:36.266Z,39.30
2023-12-28T13:23:07.877Z,40.03
2023-12-28T13:25:37.029Z,42.90
2023-12-28T13:28:04.123Z,43.53
2023-12-28T13:30:30.998Z,41.45
2023-12-28T13:32:58.409Z,38.53
2023-12-28T13:35:25.385Z,42.65
2023-12-28T13:37:52.201Z,35.40
2023-12-28T13:40:23.950Z,38.13
2023-12-28T13:42:50.786Z,38.17
2023-12-28T13:45:24.064Z,37.08
2023-12-28T13:47:53.359Z,43.00
2023-12-28T13:50:20.258Z,34.72
2023-12-28T13:52:51.157Z,38.17
2023-12-28T13:55:20.782Z,34.85
2023-12-28T13:57:47.592Z,33.78
2023-12-28T14:00:15.404Z,35.65
2023-12-28T14:02:42.348Z,35.15
2023-12-28T14:05:09.505Z,32.90
2023-12-28T14:07:41.813Z,36.05
2023-12-28T14:10:14.854Z,33.55
2023-12-28T14:12:41.605Z,34.67
2023-12-28T14:15:11.205Z,35.78
2023-12-28T14:17:38.000Z,47.35
2023-12-28T14:20:06.093Z,36.45
2023-12-28T14:22:33.135Z,36.25
2023-12-28T14:25:00.518Z,34.92
2023-12-28T14:27:30.513Z,36.35
2023-12-28T14:29:59.931Z,35.60
2023-12-28T14:32:27.611Z,35.45
2023-12-28T14:34:54.622Z,35.70
2023-12-28T14:37:24.145Z,35.55
2023-12-28T14:39:51.761Z,31.67
2023-12-28T14:42:18.632Z,32.30
2023-12-28T14:44:51.102Z,36.85
2023-12-28T14:47:17.820Z,30.23
2023-12-28T14:49:48.036Z,34.47
2023-12-28T14:52:16.308Z,37.17
2023-12-28T14:54:46.279Z,35.53
2023-12-28T14:57:13.697Z,34.53
2023-12-28T14:59:46.230Z,30.00
2023-12-28T15:02:13.130Z,34.38
2023-12-28T15:04:40.091Z,37.05
2023-12-28T15:07:06.920Z,34.42
2023-12-28T15:09:38.330Z,39.00
2023-12-28T15:12:13.657Z,41.85
2023-12-28T15:14:46.127Z,33.45
2023-12-28T15:17:19.933Z,37.67
2023-12-28T15:19:47.128Z,34.50
2023-12-28T15:22:14.285Z,35.70
2023-12-28T15:24:42.730Z,38.78
2023-12-28T15:27:11.001Z,41.00
2023-12-28T15:29:37.862Z,33.45
2023-12-28T15:32:04.919Z,41.83
2023-12-28T15:34:31.766Z,39.83
2023-12-28T15:36:58.521Z,40.85
2023-12-28T15:39:25.481Z,43.35
2023-12-28T15:41:52.245Z,39.03
2023-12-28T15:44:18.980Z,43.75
2023-12-28T15:46:45.749Z,39.45
2023-12-28T15:49:12.667Z,39.30
2023-12-28T15:51:39.626Z,40.30
2023-12-28T15:54:09.641Z,37.60
2023-12-28T15:56:41.852Z,39.38
2023-12-28T15:59:08.635Z,42.78
2023-12-28T16:01:36.092Z,38.60
2023-12-28T16:04:03.330Z,42.80
2023-12-28T16:06:30.119Z,40.42
2023-12-28T16:09:01.127Z,44.85
2023-12-28T16:11:33.926Z,44.38
2023-12-28T16:14:00.990Z,47.75
2023-12-28T16:16:28.142Z,40.38
2023-12-28T16:19:00.805Z,43.22
2023-12-28T16:21:28.068Z,46.13
2023-12-28T16:23:55.120Z,42.22
2023-12-28T16:26:21.935Z,48.45
2023-12-28T16:28:49.108Z,41.72
2023-12-28T16:31:16.033Z,39.58
2023-12-28T16:33:43.345Z,43.33
2023-12-28T16:36:10.121Z,42.55
2023-12-28T16:38:44.037Z,46.30
2023-12-28T16:41:11.817Z,42.80
2023-12-28T16:43:38.794Z,41.42
2023-12-28T16:46:06.198Z,46.45
2023-12-28T16:48:38.723Z,47.55
2023-12-28T16:51:07.806Z,41.03
2023-12-28T16:53:36.315Z,41.67
2023-12-28T16:56:03.155Z,46.60
2023-12-28T16:58:30.008Z,51.13
2023-12-28T17:00:57.385Z,47.78
2023-12-28T17:03:24.320Z,49.67
2023-12-28T17:05:51.292Z,48.33
2023-12-28T17:08:19.681Z,54.58
2023-12-28T17:10:47.192Z,51.20
2023-12-28T17:13:14.511Z,50.35
2023-12-28T17:15:44.217Z,53.63
2023-12-28T17:18:13.957Z,53.33
2023-12-28T17:20:40.957Z,48.80
2023-12-28T17:23:22.021Z,51.10
2023-12-28T17:26:20.674Z,54.03
2023-12-28T17:28:53.259Z,53.80
2023-12-28T17:31:28.931Z,55.47
2023-12-28T17:33:56.932Z,53.67
2023-12-28T17:36:27.517Z,53.83
2023-12-28T17:38:54.879Z,57.42
2023-12-28T17:41:33.211Z,58.13
2023-12-28T17:44:19.495Z,53.70
2023-12-28T17:46:58.193Z,52.55
2023-12-28T17:49:28.950Z,52.42
2023-12-28T17:52:00.248Z,57.25
2023-12-28T17:54:29.947Z,64.47
2023-12-28T17:57:12.239Z,56.08
2023-12-28T17:59:44.503Z,60.20
2023-12-28T18:02:12.567Z,57.92
2023-12-28T18:04:44.693Z,56.40
2023-12-28T18:07:24.201Z,62.15
2023-12-28T18:09:53.272Z,58.42
2023-12-28T18:12:20.155Z,58.30
2023-12-28T18:14:46.992Z,59.63
2023-12-28T18:17:23.088Z,64.43
2023-12-28T18:19:50.901Z,60.45
2023-12-28T18:22:20.100Z,59.03
2023-12-28T18:24:46.936Z,56.15
2023-12-28T18:27:13.719Z,60.28
2023-12-28T18:29:40.546Z,63.60
2023-12-28T18:32:07.416Z,62.92
2023-12-28T18:34:37.154Z,62.03
2023-12-28T18:37:04.834Z,62.97
2023-12-28T18:39:31.779Z,58.70
2023-12-28T18:41:58.564Z,64.18
2023-12-28T18:44:30.852Z,64.00
2023-12-28T18:46:58.377Z,62.20
2023-12-28T18:49:25.426Z,62.30
2023-12-28T18:51:52.639Z,56.85
2023-12-28T18:54:19.572Z,55.67
2023-12-28T18:56:46.319Z,53.22
2023-12-28T18:59:16.506Z,63.33
2023-12-28T19:01:51.915Z,55.90
2023-12-28T19:04:19.229Z,61.45
2023-12-28T19:06:50.393Z,68.03
2023-12-28T19:09:19.182Z,64.35
2023-12-28T19:11:49.485Z,65.03
2023-12-28T19:14:19.255Z,65.00
2023-12-28T19:16:48.485Z,61.83
2023-12-28T19:19:15.522Z,60.10
2023-12-28T19:21:49.327Z,47.25
2023-12-28T19:24:17.291Z,51.50
2023-12-28T19:26:44.045Z,60.55
2023-12-28T19:29:17.500Z,62.85
2023-12-28T19:31:47.883Z,63.13
2023-12-28T19:34:17.996Z,69.22
2023-12-28T19:36:47.554Z,68.60
2023-12-28T19:39:32.874Z,59.70
2023-12-28T19:41:59.717Z,67.65
2023-12-28T19:44:26.560Z,62.83
2023-12-28T19:46:54.612Z,66.22
2023-12-28T19:49:24.264Z,64.93
2023-12-28T19:51:54.469Z,66.07
2023-12-28T19:54:21.299Z,71.15
2023-12-28T19:56:50.516Z,69.03
2023-12-28T19:59:17.583Z,60.60
2023-12-28T20:01:48.493Z,64.00
2023-12-28T20:04:19.678Z,67.78
2023-12-28T20:06:51.025Z,70.47
2023-12-28T20:09:17.838Z,70.38
2023-12-28T20:11:45.349Z,61.58
2023-12-28T20:14:12.504Z,67.63
2023-12-28T20:16:39.236Z,65.15
2023-12-28T20:19:06.318Z,66.15
2023-12-28T20:21:33.241Z,69.15
2023-12-28T20:24:00.270Z,65.65
2023-12-28T20:26:29.400Z,61.33
2023-12-28T20:28:59.362Z,61.47
2023-12-28T20:31:31.316Z,59.17
2023-12-28T20:33:58.588Z,67.50
2023-12-28T20:36:28.987Z,58.80
2023-12-28T20:38:55.783Z,61.08
2023-12-28T20:41:22.868Z,64.82
2023-12-28T20:43:49.863Z,65.72
2023-12-28T20:46:16.752Z,61.22
2023-12-28T20:48:43.628Z,66.90
2023-12-28T20:51:13.202Z,60.88
2023-12-28T20:53:40.183Z,66.97
2023-12-28T20:56:12.752Z,64.43
2023-12-28T20:58:48.740Z,73.20
2023-12-28T21:01:15.956Z,70.30
2023-12-28T21:03:42.963Z,63.35
2023-12-28T21:06:09.830Z,66.72
2023-12-28T21:08:36.666Z,69.75
2023-12-28T21:11:03.557Z,67.25
2023-12-28T21:13:30.342Z,67.35
2023-12-28T21:15:57.481Z,62.72
2023-12-28T21:18:31.141Z,67.15
2023-12-28T21:23:42.717Z,66.78
2023-12-28T21:26:09.609Z,67.90
2023-12-28T21:28:36.798Z,66.07
2023-12-28T21:31:08.876Z,64.22
2023-12-28T21:33:35.967Z,69.13
2023-12-28T21:36:08.190Z,75.50
2023-12-28T21:38:35.017Z,72.43
2023-12-28T21:41:01.780Z,70.00
2023-12-28T21:43:31.089Z,67.82
2023-12-28T21:46:02.432Z,68.00
2023-12-28T21:48:29.615Z,69.70
2023-12-28T21:51:02.734Z,61.35
2023-12-28T21:53:32.213Z,67.90
2023-12-28T21:55:59.353Z,59.85
2023-12-28T21:58:28.156Z,63.05
2023-12-28T22:00:57.871Z,65.63
2023-12-28T22:03:29.857Z,64.90
2023-12-28T22:05:56.959Z,68.43
2023-12-28T22:08:26.162Z,77.45
2023-12-28T22:10:53.146Z,73.43
2023-12-28T22:13:20.068Z,78.55
2023-12-28T22:15:56.264Z,87.72
2023-12-28T22:18:23.094Z,84.53
2023-12-28T22:20:53.220Z,87.40
2023-12-28T22:23:20.107Z,84.05
2023-12-28T22:25:46.881Z,80.90
2023-12-28T22:28:14.762Z,78.65
2023-12-28T22:30:41.694Z,78.72
2023-12-28T22:33:11.656Z,86.88
2023-12-28T22:35:44.996Z,78.75
2023-12-28T22:38:11.780Z,71.72
2023-12-28T22:40:38.519Z,79.18
2023-12-28T22:43:05.362Z,71.60
2023-12-28T22:45:32.213Z,64.75
2023-12-28T22:47:59.384Z,67.13
2023-12-28T22:50:30.479Z,78.57
2023-12-28T22:52:57.471Z,73.60
2023-12-28T22:55:24.231Z,63.13
2023-12-28T22:57:51.178Z,76.70
2023-12-28T23:00:20.792Z,76.43
2023-12-28T23:02:47.708Z,82.47
2023-12-28T23:05:16.921Z,79.00
2023-12-28T23:07:47.749Z,90.03
2023-12-28T23:10:14.540Z,77.07
2023-12-28T23:12:42.178Z,87.82
2023-12-28T23:15:09.314Z,84.50
2023-12-28T23:17:36.262Z,83.22
2023-12-28T23:20:03.333Z,79.25
2023-12-28T23:22:30.173Z,77.53
2023-12-28T23:25:01.210Z,74.72
2023-12-28T23:27:34.546Z,82.22
2023-12-28T23:30:01.331Z,92.07
2023-12-28T23:32:29.969Z,82.40
2023-12-28T23:34:57.108Z,84.40
2023-12-28T23:37:24.016Z,74.88
2023-12-28T23:39:56.145Z,70.57
2023-12-28T23:42:23.094Z,66.53
2023-12-28T23:44:49.843Z,67.45
2023-12-28T23:47:16.816Z,71.70
2023-12-28T23:49:43.711Z,81.35
2023-12-28T23:52:10.621Z,87.95
2023-12-28T23:54:37.607Z,78.38
2023-12-28T23:57:07.778Z,75.30
2023-12-28T23:59:34.880Z,81.15
